sensor_id;sensor_type;location;lat;lon;timestamp;pressure;altitude;pressure_sealevel;temperature;humidity
85984;BME280;76557;45.488;12.254;2024-03-02T00:03:28;100777.56;;;10.02;92.19
85984;BME280;76557;45.488;12.254;2024-03-02T00:07:24;100783.47;;;9.98;91.90
85984;BME280;76557;45.488;12.254;2024-03-02T00:11:19;100783.06;;;10.02;92.11
85984;BME280;76557;45.488;12.254;2024-03-02T00:19:26;100786.00;;;9.93;92.20
85984;BME280;76557;45.488;12.254;2024-03-02T00:23:21;100780.94;;;9.90;92.47
85984;BME280;76557;45.488;12.254;2024-03-02T00:27:17;100786.44;;;9.90;92.96
85984;BME280;76557;45.488;12.254;2024-03-02T00:31:15;100784.09;;;9.87;92.55
85984;BME280;76557;45.488;12.254;2024-03-02T00:35:10;100786.84;;;9.87;92.87
85984;BME280;76557;45.488;12.254;2024-03-02T00:39:06;100781.34;;;9.87;92.35
85984;BME280;76557;45.488;12.254;2024-03-02T00:43:03;100781.56;;;9.86;92.25
85984;BME280;76557;45.488;12.254;2024-03-02T00:46:58;100783.06;;;9.88;92.27
85984;BME280;76557;45.488;12.254;2024-03-02T00:50:55;100778.81;;;9.86;92.33
85984;BME280;76557;45.488;12.254;2024-03-02T00:54:50;100780.50;;;9.80;91.83
85984;BME280;76557;45.488;12.254;2024-03-02T00:58:46;100778.41;;;9.76;92.09
85984;BME280;76557;45.488;12.254;2024-03-02T01:02:41;100777.75;;;9.67;92.02
85984;BME280;76557;45.488;12.254;2024-03-02T01:06:39;100798.19;;;9.58;92.02
85984;BME280;76557;45.488;12.254;2024-03-02T01:10:34;100798.59;;;9.48;91.89
85984;BME280;76557;45.488;12.254;2024-03-02T01:14:30;100800.28;;;9.43;92.59
85984;BME280;76557;45.488;12.254;2024-03-02T01:18:25;100801.31;;;9.35;92.62
85984;BME280;76557;45.488;12.254;2024-03-02T01:22:22;100801.69;;;9.32;92.09
85984;BME280;76557;45.488;12.254;2024-03-02T01:26:20;100797.50;;;9.30;91.71
85984;BME280;76557;45.488;12.254;2024-03-02T01:30:15;100793.69;;;9.31;91.09
85984;BME280;76557;45.488;12.254;2024-03-02T01:34:11;100795.16;;;9.27;91.17
85984;BME280;76557;45.488;12.254;2024-03-02T01:38:07;100798.53;;;9.29;90.76
85984;BME280;76557;45.488;12.254;2024-03-02T01:42:03;100798.53;;;9.29;91.02
85984;BME280;76557;45.488;12.254;2024-03-02T01:45:58;100791.75;;;9.25;90.86
85984;BME280;76557;45.488;12.254;2024-03-02T01:49:54;100790.50;;;9.21;90.81
85984;BME280;76557;45.488;12.254;2024-03-02T01:53:49;100802.69;;;9.11;91.10
85984;BME280;76557;45.488;12.254;2024-03-02T01:57:45;100798.44;;;9.02;91.57
85984;BME280;76557;45.488;12.254;2024-03-02T02:01:42;100791.66;;;8.98;91.61
85984;BME280;76557;45.488;12.254;2024-03-02T02:05:37;100795.47;;;8.97;91.85
85984;BME280;76557;45.488;12.254;2024-03-02T02:09:33;100804.75;;;8.96;91.91
85984;BME280;76557;45.488;12.254;2024-03-02T02:13:28;100796.06;;;8.93;91.49
85984;BME280;76557;45.488;12.254;2024-03-02T02:17:23;100796.72;;;8.95;91.65
85984;BME280;76557;45.488;12.254;2024-03-02T02:21:22;100796.91;;;8.93;91.49
85984;BME280;76557;45.488;12.254;2024-03-02T02:25:18;100799.25;;;8.96;91.54
85984;BME280;76557;45.488;12.254;2024-03-02T02:29:13;100797.56;;;8.95;91.97
85984;BME280;76557;45.488;12.254;2024-03-02T02:33:09;100798.00;;;8.99;91.47
85984;BME280;76557;45.488;12.254;2024-03-02T02:37:04;100791.28;;;9.01;91.38
85984;BME280;76557;45.488;12.254;2024-03-02T02:40:59;100789.56;;;9.00;91.37
85984;BME280;76557;45.488;12.254;2024-03-02T02:44:55;100792.97;;;9.02;91.49
85984;BME280;76557;45.488;12.254;2024-03-02T02:48:50;100786.59;;;8.95;91.24
85984;BME280;76557;45.488;12.254;2024-03-02T02:52:48;100786.59;;;8.95;91.76
85984;BME280;76557;45.488;12.254;2024-03-02T02:56:43;100781.31;;;8.94;91.76
85984;BME280;76557;45.488;12.254;2024-03-02T03:00:40;100785.97;;;8.93;91.88
85984;BME280;76557;45.488;12.254;2024-03-02T03:04:35;100780.47;;;8.93;92.08
85984;BME280;76557;45.488;12.254;2024-03-02T03:08:30;100783.66;;;8.90;92.27
85984;BME280;76557;45.488;12.254;2024-03-02T03:12:26;100779.22;;;8.89;92.15
85984;BME280;76557;45.488;12.254;2024-03-02T03:16:21;100786.38;;;8.90;92.48
85984;BME280;76557;45.488;12.254;2024-03-02T03:20:16;100782.56;;;8.91;92.29
85984;BME280;76557;45.488;12.254;2024-03-02T03:24:12;100786.59;;;8.95;92.47
85984;BME280;76557;45.488;12.254;2024-03-02T03:28:08;100782.81;;;8.96;92.56
85984;BME280;76557;45.488;12.254;2024-03-02T03:32:05;100792.13;;;9.02;92.45
85984;BME280;76557;45.488;12.254;2024-03-02T03:36:02;100791.91;;;9.03;92.41
85984;BME280;76557;45.488;12.254;2024-03-02T03:40:02;100791.91;;;9.03;92.31
85984;BME280;76557;45.488;12.254;2024-03-02T03:43:58;100785.38;;;9.04;92.23
85984;BME280;76557;45.488;12.254;2024-03-02T03:47:53;100793.00;;;9.09;92.14
85984;BME280;76557;45.488;12.254;2024-03-02T03:51:49;100793.84;;;9.09;92.39
85984;BME280;76557;45.488;12.254;2024-03-02T03:55:45;100788.34;;;9.09;92.30
85984;BME280;76557;45.488;12.254;2024-03-02T03:59:42;100795.94;;;9.14;91.80
85984;BME280;76557;45.488;12.254;2024-03-02T04:03:38;100798.91;;;9.12;91.59
85984;BME280;76557;45.488;12.254;2024-03-02T04:07:36;100792.16;;;9.15;91.78
85984;BME280;76557;45.488;12.254;2024-03-02T04:11:35;100795.97;;;9.21;91.53
85984;BME280;76557;45.488;12.254;2024-03-02T04:15:30;100799.38;;;9.23;91.53
85984;BME280;76557;45.488;12.254;2024-03-02T04:19:25;100794.28;;;9.20;91.84
85984;BME280;76557;45.488;12.254;2024-03-02T04:23:21;100804.84;;;9.23;91.65
85984;BME280;76557;45.488;12.254;2024-03-02T04:27:16;100804.88;;;9.29;91.56
85984;BME280;76557;45.488;12.254;2024-03-02T04:31:12;100803.38;;;9.27;91.10
85984;BME280;76557;45.488;12.254;2024-03-02T04:35:07;100799.59;;;9.28;91.97
85984;BME280;76557;45.488;12.254;2024-03-02T04:39:03;100811.22;;;9.30;92.02
85984;BME280;76557;45.488;12.254;2024-03-02T04:42:59;100810.56;;;9.28;91.94
85984;BME280;76557;45.488;12.254;2024-03-02T04:46:55;100820.03;;;9.32;92.29
85984;BME280;76557;45.488;12.254;2024-03-02T04:50:50;100813.28;;;9.28;92.46
85984;BME280;76557;45.488;12.254;2024-03-02T04:54:46;100822.16;;;9.30;92.81
85984;BME280;76557;45.488;12.254;2024-03-02T04:59:00;100820.03;;;9.32;92.79
85984;BME280;76557;45.488;12.254;2024-03-02T05:02:55;100823.44;;;9.34;92.83
85984;BME280;76557;45.488;12.254;2024-03-02T05:06:50;100826.81;;;9.36;92.90
85984;BME280;76557;45.488;12.254;2024-03-02T05:10:47;100829.78;;;9.34;92.79
85984;BME280;76557;45.488;12.254;2024-03-02T05:14:43;100828.53;;;9.37;92.88
85984;BME280;76557;45.488;12.254;2024-03-02T05:18:38;100840.09;;;9.39;92.45
85984;BME280;76557;45.488;12.254;2024-03-02T05:22:34;100840.75;;;9.41;92.55
85984;BME280;76557;45.488;12.254;2024-03-02T05:26:30;100834.84;;;9.37;92.37
85984;BME280;76557;45.488;12.254;2024-03-02T05:30:25;100847.47;;;9.38;92.82
85984;BME280;76557;45.488;12.254;2024-03-02T05:34:21;100849.19;;;9.39;92.76
85984;BME280;76557;45.488;12.254;2024-03-02T05:38:16;100841.16;;;9.38;92.57
85984;BME280;76557;45.488;12.254;2024-03-02T05:42:12;100854.25;;;9.36;93.10
85984;BME280;76557;45.488;12.254;2024-03-02T05:46:07;100849.38;;;9.38;93.18
85984;BME280;76557;45.488;12.254;2024-03-02T05:50:03;100863.09;;;9.38;93.01
85984;BME280;76557;45.488;12.254;2024-03-02T05:53:58;100868.56;;;9.38;93.16
85984;BME280;76557;45.488;12.254;2024-03-02T05:57:54;100865.59;;;9.33;93.54
85984;BME280;76557;45.488;12.254;2024-03-02T06:02:01;100859.94;;;9.34;93.28
85984;BME280;76557;45.488;12.254;2024-03-02T06:05:57;100876.59;;;9.39;93.56
85984;BME280;76557;45.488;12.254;2024-03-02T06:09:52;100873.66;;;9.41;93.80
85984;BME280;76557;45.488;12.254;2024-03-02T06:13:47;100881.25;;;9.45;93.38
85984;BME280;76557;45.488;12.254;2024-03-02T06:17:43;100885.50;;;9.48;93.97
85984;BME280;76557;45.488;12.254;2024-03-02T06:21:38;100897.97;;;9.50;93.45
85984;BME280;76557;45.488;12.254;2024-03-02T06:25:35;100892.25;;;9.52;92.98
85984;BME280;76557;45.488;12.254;2024-03-02T06:29:32;100888.06;;;9.56;93.37
85984;BME280;76557;45.488;12.254;2024-03-02T06:33:28;100892.72;;;9.62;92.84
85984;BME280;76557;45.488;12.254;2024-03-02T06:37:23;100893.97;;;9.60;93.37
85984;BME280;76557;45.488;12.254;2024-03-02T06:41:20;100900.13;;;9.68;92.82
85984;BME280;76557;45.488;12.254;2024-03-02T06:45:15;100904.16;;;9.72;92.89
85984;BME280;76557;45.488;12.254;2024-03-02T06:49:10;100899.31;;;9.74;92.61
85984;BME280;76557;45.488;12.254;2024-03-02T06:53:06;100905.00;;;9.79;92.38
85984;BME280;76557;45.488;12.254;2024-03-02T06:57:01;100918.53;;;9.81;91.49
85984;BME280;76557;45.488;12.254;2024-03-02T07:00:57;100910.50;;;9.79;91.94
85984;BME280;76557;45.488;12.254;2024-03-02T07:04:53;100925.28;;;9.85;91.89
85984;BME280;76557;45.488;12.254;2024-03-02T07:08:49;100929.94;;;9.84;92.46
85984;BME280;76557;45.488;12.254;2024-03-02T07:12:44;100934.63;;;9.90;91.35
85984;BME280;76557;45.488;12.254;2024-03-02T07:16:39;100931.44;;;9.93;91.72
85984;BME280;76557;45.488;12.254;2024-03-02T07:20:35;100942.03;;;9.96;91.70
85984;BME280;76557;45.488;12.254;2024-03-02T07:24:31;100943.66;;;9.84;91.83
85984;BME280;76557;45.488;12.254;2024-03-02T07:28:26;100944.75;;;9.96;91.91
85984;BME280;76557;45.488;12.254;2024-03-02T07:32:22;100942.25;;;10.02;91.91
85984;BME280;76557;45.488;12.254;2024-03-02T07:36:17;100946.25;;;10.06;92.07
85984;BME280;76557;45.488;12.254;2024-03-02T07:40:13;100951.94;;;10.04;91.45
85984;BME280;76557;45.488;12.254;2024-03-02T07:44:09;100957.66;;;10.03;91.09
85984;BME280;76557;45.488;12.254;2024-03-02T07:48:05;100963.38;;;10.08;90.90
85984;BME280;76557;45.488;12.254;2024-03-02T07:52:00;100953.66;;;10.12;90.80
85984;BME280;76557;45.488;12.254;2024-03-02T07:55:56;100957.50;;;10.17;91.08
85984;BME280;76557;45.488;12.254;2024-03-02T07:59:56;100965.56;;;10.32;90.44
85984;BME280;76557;45.488;12.254;2024-03-02T08:03:52;100970.66;;;10.35;89.84
85984;BME280;76557;45.488;12.254;2024-03-02T08:07:48;100974.44;;;10.34;90.10
85984;BME280;76557;45.488;12.254;2024-03-02T08:11:43;100984.28;;;10.09;91.34
85984;BME280;76557;45.488;12.254;2024-03-02T08:15:39;100985.31;;;10.08;91.36
85984;BME280;76557;45.488;12.254;2024-03-02T08:19:34;100988.72;;;10.10;91.43
85984;BME280;76557;45.488;12.254;2024-03-02T08:23:30;100989.94;;;10.01;92.45
85984;BME280;76557;45.488;12.254;2024-03-02T08:27:26;100993.31;;;9.96;92.55
85984;BME280;76557;45.488;12.254;2024-03-02T08:31:21;100998.78;;;9.89;92.96
85984;BME280;76557;45.488;12.254;2024-03-02T08:35:17;100999.38;;;9.85;92.65
85984;BME280;76557;45.488;12.254;2024-03-02T08:39:12;101013.06;;;9.78;93.06
85984;BME280;76557;45.488;12.254;2024-03-02T08:43:11;101006.34;;;9.81;93.65
85984;BME280;76557;45.488;12.254;2024-03-02T08:47:06;101001.69;;;9.81;93.45
85984;BME280;76557;45.488;12.254;2024-03-02T08:51:02;101007.19;;;9.81;93.29
85984;BME280;76557;45.488;12.254;2024-03-02T08:54:59;101009.94;;;9.81;93.42
85984;BME280;76557;45.488;12.254;2024-03-02T08:58:55;101022.34;;;9.77;93.19
85984;BME280;76557;45.488;12.254;2024-03-02T09:02:50;101022.34;;;9.77;93.60
85984;BME280;76557;45.488;12.254;2024-03-02T09:06:46;101016.94;;;9.90;92.93
85984;BME280;76557;45.488;12.254;2024-03-02T09:10:41;101018.25;;;10.08;93.54
85984;BME280;76557;45.488;12.254;2024-03-02T09:14:37;101032.25;;;10.19;92.64
85984;BME280;76557;45.488;12.254;2024-03-02T09:18:33;101020.44;;;10.25;92.46
85984;BME280;76557;45.488;12.254;2024-03-02T09:22:28;101024.31;;;10.44;92.00
85984;BME280;76557;45.488;12.254;2024-03-02T09:26:23;101022.88;;;10.68;91.68
85984;BME280;76557;45.488;12.254;2024-03-02T09:30:19;101026.91;;;10.92;90.08
85984;BME280;76557;45.488;12.254;2024-03-02T09:34:15;101028.56;;;11.32;89.14
85984;BME280;76557;45.488;12.254;2024-03-02T09:38:10;101026.41;;;11.61;86.90
85984;BME280;76557;45.488;12.254;2024-03-02T09:42:06;101018.34;;;11.79;86.31
85984;BME280;76557;45.488;12.254;2024-03-02T09:46:03;101023.59;;;11.87;84.31
85984;BME280;76557;45.488;12.254;2024-03-02T09:49:59;101025.09;;;11.89;84.47
85984;BME280;76557;45.488;12.254;2024-03-02T09:53:55;101027.44;;;12.30;83.49
85984;BME280;76557;45.488;12.254;2024-03-02T09:57:51;101025.13;;;12.27;83.45
85984;BME280;76557;45.488;12.254;2024-03-02T10:05:53;101024.56;;;12.12;83.33
85984;BME280;76557;45.488;12.254;2024-03-02T10:09:48;101023.78;;;11.92;84.51
85984;BME280;76557;45.488;12.254;2024-03-02T10:13:44;101033.75;;;11.93;85.66
85984;BME280;76557;45.488;12.254;2024-03-02T10:17:40;101027.44;;;11.79;85.72
85984;BME280;76557;45.488;12.254;2024-03-02T10:21:35;101031.91;;;11.74;86.42
85984;BME280;76557;45.488;12.254;2024-03-02T10:25:35;101037.81;;;11.71;86.15
85984;BME280;76557;45.488;12.254;2024-03-02T10:29:31;101028.72;;;11.77;86.59
85984;BME280;76557;45.488;12.254;2024-03-02T10:33:27;101036.16;;;11.76;85.92
85984;BME280;76557;45.488;12.254;2024-03-02T10:37:24;101029.81;;;11.63;87.72
85984;BME280;76557;45.488;12.254;2024-03-02T10:41:20;101032.75;;;11.68;87.64
85984;BME280;76557;45.488;12.254;2024-03-02T10:45:19;101035.50;;;11.74;87.20
85984;BME280;76557;45.488;12.254;2024-03-02T10:49:16;101028.94;;;11.75;87.20
85984;BME280;76557;45.488;12.254;2024-03-02T10:53:12;101028.50;;;11.72;88.49
85984;BME280;76557;45.488;12.254;2024-03-02T10:57:07;101026.81;;;11.57;88.61
85984;BME280;76557;45.488;12.254;2024-03-02T11:01:05;101031.06;;;11.60;88.54
85984;BME280;76557;45.488;12.254;2024-03-02T11:05:04;101039.16;;;11.48;89.48
85984;BME280;76557;45.488;12.254;2024-03-02T11:09:06;101035.75;;;11.46;89.36
85984;BME280;76557;45.488;12.254;2024-03-02T11:13:09;101035.75;;;11.53;89.06
85984;BME280;76557;45.488;12.254;2024-03-02T11:17:06;101021.34;;;11.44;88.88
85984;BME280;76557;45.488;12.254;2024-03-02T11:21:03;101029.41;;;11.39;89.50
85984;BME280;76557;45.488;12.254;2024-03-02T11:24:58;101030.47;;;11.45;89.31
85984;BME280;76557;45.488;12.254;2024-03-02T11:28:54;101019.28;;;11.33;89.67
85984;BME280;76557;45.488;12.254;2024-03-02T11:32:55;101021.38;;;11.31;89.81
85984;BME280;76557;45.488;12.254;2024-03-02T11:36:51;101013.38;;;11.23;89.38
85984;BME280;76557;45.488;12.254;2024-03-02T11:40:46;101010.38;;;11.31;89.95
85984;BME280;76557;45.488;12.254;2024-03-02T11:44:44;101007.19;;;11.47;90.25
85984;BME280;76557;45.488;12.254;2024-03-02T11:48:40;101001.66;;;11.61;89.60
85984;BME280;76557;45.488;12.254;2024-03-02T11:52:36;101008.59;;;11.83;89.02
85984;BME280;76557;45.488;12.254;2024-03-02T11:56:33;100994.50;;;12.04;87.63
85984;BME280;76557;45.488;12.254;2024-03-02T12:00:29;100989.25;;;12.41;86.54
85984;BME280;76557;45.488;12.254;2024-03-02T12:04:25;100983.97;;;12.64;85.21
85984;BME280;76557;45.488;12.254;2024-03-02T12:08:21;100993.38;;;12.56;84.35
85984;BME280;76557;45.488;12.254;2024-03-02T12:12:17;100993.34;;;12.63;86.31
85984;BME280;76557;45.488;12.254;2024-03-02T12:16:27;100989.94;;;12.61;84.77
85984;BME280;76557;45.488;12.254;2024-03-02T12:20:29;100985.84;;;12.39;86.28
85984;BME280;76557;45.488;12.254;2024-03-02T12:24:29;100982.88;;;12.40;86.43
85984;BME280;76557;45.488;12.254;2024-03-02T12:28:24;100982.03;;;12.40;86.90
85984;BME280;76557;45.488;12.254;2024-03-02T12:32:21;100978.13;;;12.22;86.98
85984;BME280;76557;45.488;12.254;2024-03-02T12:36:17;100969.22;;;12.20;86.75
85984;BME280;76557;45.488;12.254;2024-03-02T12:40:13;100975.75;;;12.26;86.84
85984;BME280;76557;45.488;12.254;2024-03-02T12:44:09;100973.75;;;12.40;87.22
85984;BME280;76557;45.488;12.254;2024-03-02T12:48:05;100977.22;;;12.60;86.83
85984;BME280;76557;45.488;12.254;2024-03-02T12:52:00;100975.09;;;12.62;84.88
85984;BME280;76557;45.488;12.254;2024-03-02T12:55:56;100977.28;;;12.53;85.21
85984;BME280;76557;45.488;12.254;2024-03-02T12:59:52;100976.09;;;12.43;85.46
85984;BME280;76557;45.488;12.254;2024-03-02T13:03:50;100972.13;;;12.32;86.09
85984;BME280;76557;45.488;12.254;2024-03-02T13:07:49;100972.97;;;12.32;86.29
85984;BME280;76557;45.488;12.254;2024-03-02T13:11:45;100981.66;;;12.36;86.59
85984;BME280;76557;45.488;12.254;2024-03-02T13:15:41;100969.41;;;12.25;85.71
85984;BME280;76557;45.488;12.254;2024-03-02T13:19:37;100980.41;;;12.25;87.51
85984;BME280;76557;45.488;12.254;2024-03-02T13:23:33;100979.09;;;12.34;86.90
85984;BME280;76557;45.488;12.254;2024-03-02T13:27:28;100983.72;;;12.41;86.95
85984;BME280;76557;45.488;12.254;2024-03-02T13:31:23;100976.91;;;12.43;86.12
85984;BME280;76557;45.488;12.254;2024-03-02T13:35:19;100971.44;;;12.37;86.39
85984;BME280;76557;45.488;12.254;2024-03-02T13:39:14;100964.69;;;12.32;87.21
85984;BME280;76557;45.488;12.254;2024-03-02T13:43:10;100960.25;;;12.31;87.37
85984;BME280;76557;45.488;12.254;2024-03-02T13:47:07;100960.75;;;12.53;85.94
85984;BME280;76557;45.488;12.254;2024-03-02T13:51:02;100947.34;;;12.57;86.30
85984;BME280;76557;45.488;12.254;2024-03-02T13:54:58;100948.06;;;12.46;85.26
85984;BME280;76557;45.488;12.254;2024-03-02T13:58:53;100957.44;;;12.38;86.09
85984;BME280;76557;45.488;12.254;2024-03-02T14:02:49;100953.59;;;12.46;85.04
85984;BME280;76557;45.488;12.254;2024-03-02T14:06:47;100953.22;;;12.67;84.59
85984;BME280;76557;45.488;12.254;2024-03-02T14:10:43;100944.38;;;12.83;83.76
85984;BME280;76557;45.488;12.254;2024-03-02T14:14:38;100941.88;;;12.82;81.75
85984;BME280;76557;45.488;12.254;2024-03-02T14:18:33;100941.81;;;12.88;81.64
85984;BME280;76557;45.488;12.254;2024-03-02T14:22:29;100950.25;;;13.11;81.54
85984;BME280;76557;45.488;12.254;2024-03-02T14:26:24;100938.69;;;13.46;80.46
85984;BME280;76557;45.488;12.254;2024-03-02T14:30:19;100939.31;;;13.48;80.02
85984;BME280;76557;45.488;12.254;2024-03-02T14:34:15;100929.09;;;13.30;79.75
85984;BME280;76557;45.488;12.254;2024-03-02T14:38:11;100931.75;;;13.19;79.47
85984;BME280;76557;45.488;12.254;2024-03-02T14:42:06;100929.88;;;12.94;79.63
85984;BME280;76557;45.488;12.254;2024-03-02T14:46:03;100934.88;;;12.79;80.25
85984;BME280;76557;45.488;12.254;2024-03-02T14:49:59;100937.38;;;12.62;81.14
85984;BME280;76557;45.488;12.254;2024-03-02T14:53:54;100943.25;;;12.66;82.33
85984;BME280;76557;45.488;12.254;2024-03-02T14:57:50;100939.28;;;12.62;82.87
85984;BME280;76557;45.488;12.254;2024-03-02T15:01:45;100936.72;;;12.60;82.21
85984;BME280;76557;45.488;12.254;2024-03-02T15:05:41;100941.84;;;12.57;83.17
85984;BME280;76557;45.488;12.254;2024-03-02T15:09:36;100934.88;;;12.54;83.81
85984;BME280;76557;45.488;12.254;2024-03-02T15:13:32;100938.00;;;12.58;83.49
85984;BME280;76557;45.488;12.254;2024-03-02T15:17:29;100935.66;;;12.61;84.23
85984;BME280;76557;45.488;12.254;2024-03-02T15:21:24;100925.25;;;12.39;83.27
85984;BME280;76557;45.488;12.254;2024-03-02T15:25:19;100934.59;;;12.31;84.26
85984;BME280;76557;45.488;12.254;2024-03-02T15:29:15;100938.00;;;12.33;85.20
85984;BME280;76557;45.488;12.254;2024-03-02T15:33:10;100928.25;;;12.30;84.87
85984;BME280;76557;45.488;12.254;2024-03-02T15:37:06;100933.22;;;12.22;83.90
85984;BME280;76557;45.488;12.254;2024-03-02T15:41:01;100934.69;;;12.18;84.46
85984;BME280;76557;45.488;12.254;2024-03-02T15:44:57;100939.81;;;12.14;84.92
85984;BME280;76557;45.488;12.254;2024-03-02T15:48:53;100943.66;;;12.07;84.94
85984;BME280;76557;45.488;12.254;2024-03-02T15:52:48;100942.63;;;12.08;85.79
85984;BME280;76557;45.488;12.254;2024-03-02T15:56:43;100949.19;;;12.07;86.05
85984;BME280;76557;45.488;12.254;2024-03-02T16:00:39;100953.03;;;11.99;87.16
85984;BME280;76557;45.488;12.254;2024-03-02T16:04:35;100951.78;;;11.95;87.74
85984;BME280;76557;45.488;12.254;2024-03-02T16:08:31;100950.53;;;11.91;88.30
85984;BME280;76557;45.488;12.254;2024-03-02T16:12:26;100945.66;;;11.93;89.07
85984;BME280;76557;45.488;12.254;2024-03-02T16:16:21;100947.97;;;11.96;88.69
85984;BME280;76557;45.488;12.254;2024-03-02T16:20:17;100949.47;;;11.92;88.03
85984;BME280;76557;45.488;12.254;2024-03-02T16:24:12;100955.22;;;11.84;88.60
85984;BME280;76557;45.488;12.254;2024-03-02T16:28:08;100965.84;;;11.74;89.30
85984;BME280;76557;45.488;12.254;2024-03-02T16:32:03;100959.06;;;11.70;89.82
85984;BME280;76557;45.488;12.254;2024-03-02T16:35:59;100963.31;;;11.66;89.63
85984;BME280;76557;45.488;12.254;2024-03-02T16:39:54;100960.38;;;11.61;90.66
85984;BME280;76557;45.488;12.254;2024-03-02T16:43:51;100964.19;;;11.60;90.96
85984;BME280;76557;45.488;12.254;2024-03-02T16:47:47;100964.19;;;11.60;90.91
85984;BME280;76557;45.488;12.254;2024-03-02T16:51:43;100975.63;;;11.57;90.95
85984;BME280;76557;45.488;12.254;2024-03-02T16:55:39;100979.44;;;11.55;91.01
85984;BME280;76557;45.488;12.254;2024-03-02T16:59:35;100975.63;;;11.57;91.26
85984;BME280;76557;45.488;12.254;2024-03-02T17:03:30;100983.25;;;11.54;90.80
85984;BME280;76557;45.488;12.254;2024-03-02T17:07:26;100978.81;;;11.53;90.89
85984;BME280;76557;45.488;12.254;2024-03-02T17:11:24;100990.44;;;11.55;90.97
85984;BME280;76557;45.488;12.254;2024-03-02T17:15:19;100987.88;;;11.61;91.30
85984;BME280;76557;45.488;12.254;2024-03-02T17:19:15;100970.97;;;11.50;90.77
85984;BME280;76557;45.488;12.254;2024-03-02T17:23:10;100974.59;;;11.44;91.79
85984;BME280;76557;45.488;12.254;2024-03-02T17:27:06;100975.69;;;11.43;91.79
85984;BME280;76557;45.488;12.254;2024-03-02T17:31:01;100981.59;;;11.40;91.47
85984;BME280;76557;45.488;12.254;2024-03-02T17:34:58;100983.72;;;11.38;92.19
85984;BME280;76557;45.488;12.254;2024-03-02T17:38:54;100980.34;;;11.36;91.80
85984;BME280;76557;45.488;12.254;2024-03-02T17:42:50;100984.16;;;11.35;91.96
85984;BME280;76557;45.488;12.254;2024-03-02T17:46:46;100976.97;;;11.28;92.27
85984;BME280;76557;45.488;12.254;2024-03-02T17:50:41;100990.53;;;11.23;92.50
85984;BME280;76557;45.488;12.254;2024-03-02T17:54:37;100988.00;;;11.14;92.58
85984;BME280;76557;45.488;12.254;2024-03-02T17:58:32;100989.25;;;11.12;92.53
85984;BME280;76557;45.488;12.254;2024-03-02T18:02:27;100993.69;;;11.06;92.88
85984;BME280;76557;45.488;12.254;2024-03-02T18:06:25;100989.25;;;10.99;92.93
85984;BME280;76557;45.488;12.254;2024-03-02T18:10:20;100992.22;;;10.91;93.17
85984;BME280;76557;45.488;12.254;2024-03-02T18:14:15;101008.31;;;10.81;93.57
85984;BME280;76557;45.488;12.254;2024-03-02T18:18:11;101004.06;;;10.78;93.31
85984;BME280;76557;45.488;12.254;2024-03-02T18:22:07;101019.50;;;10.79;93.76
85984;BME280;76557;45.488;12.254;2024-03-02T18:26:02;101008.50;;;10.86;93.94
85984;BME280;76557;45.488;12.254;2024-03-02T18:29:58;101017.41;;;10.88;93.83
85984;BME280;76557;45.488;12.254;2024-03-02T18:33:54;101019.31;;;10.94;93.82
85984;BME280;76557;45.488;12.254;2024-03-02T18:37:49;101025.66;;;11.01;93.50
85984;BME280;76557;45.488;12.254;2024-03-02T18:41:44;101024.38;;;11.03;92.96
85984;BME280;76557;45.488;12.254;2024-03-02T18:45:40;101034.09;;;11.12;93.14
85984;BME280;76557;45.488;12.254;2024-03-02T18:49:35;101026.03;;;11.18;92.60
85984;BME280;76557;45.488;12.254;2024-03-02T18:53:31;101035.38;;;11.23;92.72
85984;BME280;76557;45.488;12.254;2024-03-02T18:57:26;101042.13;;;11.27;92.34
85984;BME280;76557;45.488;12.254;2024-03-02T19:01:21;101036.63;;;11.27;92.13
85984;BME280;76557;45.488;12.254;2024-03-02T19:05:18;101048.03;;;11.31;91.85
85984;BME280;76557;45.488;12.254;2024-03-02T19:09:13;101052.69;;;11.37;92.26
85984;BME280;76557;45.488;12.254;2024-03-02T19:13:10;101046.78;;;11.33;92.00
85984;BME280;76557;45.488;12.254;2024-03-02T19:17:05;101037.47;;;11.21;92.37
85984;BME280;76557;45.488;12.254;2024-03-02T19:21:00;101038.53;;;11.13;92.70
85984;BME280;76557;45.488;12.254;2024-03-02T19:24:56;101041.28;;;11.07;93.22
85984;BME280;76557;45.488;12.254;2024-03-02T19:28:51;101043.84;;;11.02;93.23
85984;BME280;76557;45.488;12.254;2024-03-02T19:32:47;101056.94;;;11.00;92.96
85984;BME280;76557;45.488;12.254;2024-03-02T19:36:43;101052.69;;;11.04;93.29
85984;BME280;76557;45.488;12.254;2024-03-02T19:40:39;101047.84;;;10.99;93.69
85984;BME280;76557;45.488;12.254;2024-03-02T19:44:35;101057.38;;;10.97;93.30
85984;BME280;76557;45.488;12.254;2024-03-02T19:48:30;101059.47;;;10.95;93.17
85984;BME280;76557;45.488;12.254;2024-03-02T19:52:25;101060.72;;;10.92;93.47
85984;BME280;76557;45.488;12.254;2024-03-02T19:56:21;101068.97;;;10.92;93.75
85984;BME280;76557;45.488;12.254;2024-03-02T20:00:20;101049.31;;;10.89;93.90
85984;BME280;76557;45.488;12.254;2024-03-02T20:04:15;101052.94;;;10.89;93.68
85984;BME280;76557;45.488;12.254;2024-03-02T20:08:11;101065.81;;;10.89;93.34
85984;BME280;76557;45.488;12.254;2024-03-02T20:12:07;101063.69;;;10.91;93.48
85984;BME280;76557;45.488;12.254;2024-03-02T20:16:07;101058.63;;;10.88;93.16
85984;BME280;76557;45.488;12.254;2024-03-02T20:20:07;101055.22;;;10.79;93.32
85984;BME280;76557;45.488;12.254;2024-03-02T20:24:06;101046.13;;;10.72;93.53
85984;BME280;76557;45.488;12.254;2024-03-02T20:28:01;101051.22;;;10.68;93.85
85984;BME280;76557;45.488;12.254;2024-03-02T20:31:56;101042.09;;;10.61;93.95